Latest Weather Observations for Adelaide Airport

IDS60901

Issued at 2:51 pm CDT Tuesday 28 March 2017 (issued every 10 minutes, with the page automatically refreshed every 10 minutes)

About weather observations | Map of Adelaide area stations | Latest observations for Adelaide area | Other Formats
Station Details ID: 023034 Name: ADELAIDE AIRPORT Lat: -34.95 Lon: 138.52 Height: 2.0 m
Data from the previous 72 hours. | See also: Recent months at Adelaide Airport
Date/Time
CDT
Temp
°C
App
Temp
°C
Dew
Point
°C
Rel
Hum
%
Delta-T
°C
Wind Press
QNH
hPa
Press
MSL
hPa
Rain since
9am
mm
Dir  Spd
km/h
Gust
km/h
Spd
kts
Gust
kts
28/02:30pm 22.7 20.4 10.5 46 6.7 WNW 13 26 7 14 1014.3 1014.3 0.0
28/02:00pm 22.5 19.7 10.0 45 6.8 NW 15 26 8 14 1014.7 1014.7 0.0
28/01:30pm 21.8 20.2 11.6 52 5.7 NNW 11 17 6 9 1015.0 1015.0 0.0
28/01:00pm 21.2 19.2 11.5 54 5.4 W 13 20 7 11 1015.6 1015.6 0.0
28/12:30pm 21.2 18.6 10.8 51 5.7 WNW 15 26 8 14 1016.1 1016.1 0.0
28/12:00pm 20.9 17.9 10.6 51 5.6 W 17 26 9 14 1016.5 1016.5 0.0
28/11:30am 20.9 18.2 10.4 51 5.7 W 15 22 8 12 1016.7 1016.7 0.0
28/11:00am 20.6 16.7 9.5 49 5.9 WNW 20 26 11 14 1016.7 1016.7 0.0
28/10:30am 20.1 17.1 10.7 54 5.1 W 17 24 9 13 1016.8 1016.8 0.0
28/10:00am 19.7 17.8 11.9 60 4.3 N 13 19 7 10 1016.7 1016.7 0.0
28/09:30am 18.2 15.9 11.6 65 3.6 NNE 15 19 8 10 1016.6 1016.6 0.0
28/09:00am 17.8 15.3 11.1 65 3.6 NNE 15 19 8 10 1016.4 1016.4 0.0
28/08:30am 18.9 16.8 11.0 60 4.3 W 13 17 7 9 1016.1 1016.1 0.0
28/08:00am 18.1 15.8 11.9 67 3.4 W 15 19 8 10 1015.9 1015.9 0.0
28/07:30am 17.7 15.8 11.9 69 3.2 W 13 15 7 8 1015.6 1015.6 0.0
28/07:00am 17.6 15.7 11.7 68 3.2 W 13 17 7 9 1015.5 1015.5 0.0
28/06:30am 17.6 14.8 11.3 66 3.4 WSW 17 19 9 10 1015.1 1015.1 0.0
28/06:00am 17.8 15.8 11.4 66 3.5 WSW 13 20 7 11 1015.1 1015.1 0.0
28/05:30am 18.2 14.7 10.3 60 4.2 WSW 19 24 10 13 1015.1 1015.1 0.0
28/05:00am 18.2 14.6 9.7 57 4.5 WSW 19 26 10 14 1014.9 1014.9 0.0
28/04:30am 17.9 16.6 11.1 64 3.7 W 9 15 5 8 1015.4 1015.4 0.0
28/04:00am 18.0 15.5 11.2 64 3.7 WSW 15 19 8 10 1015.6 1015.6 0.0
28/03:30am 18.0 15.4 10.7 62 3.9 W 15 17 8 9 1016.1 1016.1 0.0
28/03:00am 18.0 15.7 11.6 66 3.5 W 15 17 8 9 1016.2 1016.2 0.0
28/02:30am 18.4 15.9 12.3 67 3.4 W 17 22 9 12 1016.2 1016.2 0.0
28/02:00am 18.6 16.2 12.7 68 3.3 WSW 17 20 9 11 1016.3 1016.3 0.0
28/01:30am 18.3 15.5 12.6 69 3.2 W 19 26 10 14 1016.3 1016.3 0.0
28/01:00am 18.4 16.0 12.7 69 3.2 WSW 17 22 9 12 1016.5 1016.5 0.0
28/12:30am 18.4 15.6 12.7 69 3.2 WSW 19 26 10 14 1016.4 1016.4 0.0
28/12:00am 18.6 15.2 12.5 67 3.4 WSW 22 28 12 15 1016.5 1016.5 0.0
 
Date/Time
CDT
Temp
°C
App
Temp
°C
Dew
Point
°C
Rel
Hum
%
Delta-T
°C
Wind Press
QNH
hPa
Press
MSL
hPa
Rain since
9am
mm
Dir  Spd
km/h
Gust
km/h
Spd
kts
Gust
kts
27/11:30pm 18.7 15.6 12.2 66 3.6 WSW 20 28 11 15 1016.4 1016.4 0.0
27/11:00pm 18.8 15.2 11.9 64 3.8 WSW 22 30 12 16 1016.4 1016.4 0.0
27/10:30pm 19.0 14.8 11.1 60 4.3 WSW 24 30 13 16 1016.3 1016.3 0.0
27/10:00pm 19.0 15.1 10.9 59 4.4 WSW 22 28 12 15 1016.2 1016.2 0.0
27/09:30pm 19.0 16.0 12.1 64 3.8 WSW 19 26 10 14 1016.1 1016.1 0.0
27/09:00pm 19.1 15.1 11.9 63 4.0 WSW 24 32 13 17 1015.9 1015.9 0.0
27/08:30pm 19.3 15.5 12.5 64 3.8 WSW 24 30 13 16 1015.5 1015.5 0.0
27/08:00pm 19.7 14.5 10.2 54 5.1 WSW 28 32 15 17 1015.2 1015.2 0.0
27/07:30pm 20.1 14.8 10.0 52 5.4 WSW 28 33 15 18 1015.0 1015.0 0.0
27/07:00pm 20.2 15.2 11.1 56 5.0 WSW 28 35 15 19 1015.1 1015.1 0.0
27/06:30pm 20.9 14.8 10.6 51 5.6 WSW 33 41 18 22 1014.9 1014.9 0.0
27/06:00pm 21.4 15.7 11.3 52 5.6 SW 32 41 17 22 1014.8 1014.8 0.0
27/05:30pm 21.2 15.7 11.7 54 5.3 WSW 32 39 17 21 1014.5 1014.5 0.0
27/05:00pm 21.9 16.4 11.9 53 5.6 WSW 32 37 17 20 1014.4 1014.4 0.0
27/04:30pm 22.4 15.6 7.9 39 7.6 WSW 33 39 18 21 1014.4 1014.4 0.0
27/04:00pm 22.0 16.1 10.5 48 6.3 SW 32 41 17 22 1014.4 1014.4 0.0
27/03:30pm 22.7 16.3 10.7 46 6.6 SW 35 43 19 23 1014.3 1014.3 0.0
27/03:00pm 22.3 15.3 10.0 45 6.7 WSW 37 46 20 25 1014.4 1014.4 0.0
27/02:30pm 22.7 16.9 9.6 43 7.1 WSW 30 37 16 20 1014.7 1014.7 0.0
27/02:00pm 22.1 16.2 10.4 47 6.4 SW 32 37 17 20 1014.9 1014.9 0.0
27/01:30pm 22.1 16.2 10.4 47 6.4 WSW 32 44 17 24 1015.0 1015.0 0.0
27/01:00pm 22.0 16.2 10.7 48 6.2 WSW 32 41 17 22 1015.2 1015.2 0.0
27/12:30pm 22.1 16.4 11.1 49 6.1 WSW 32 39 17 21 1015.4 1015.4 0.0
27/12:00pm 21.7 16.7 12.3 55 5.3 WSW 30 37 16 20 1015.5 1015.5 0.0
27/11:30am 20.4 16.1 13.2 63 4.1 WSW 28 37 15 20 1015.3 1015.3 0.0
27/11:00am 21.4 16.2 12.8 58 4.9 WSW 32 39 17 21 1014.8 1014.8 0.0
27/10:30am 20.4 15.1 12.6 61 4.4 WSW 32 39 17 21 1014.7 1014.7 0.0
27/10:00am 20.4 15.5 14.4 68 3.5 W 33 43 18 23 1014.0 1014.0 0.0
27/09:30am 20.8 15.6 13.5 63 4.2 WSW 33 48 18 26 1013.6 1013.6 0.0
27/09:00am 21.2 16.4 14.7 66 3.8 WSW 33 41 18 22 1012.9 1012.9 0.0
27/08:30am 21.0 19.2 16.0 73 3.0 WSW 20 28 11 15 1012.4 1012.4 0.0
27/08:00am 21.0 18.1 15.1 69 3.5 W 24 33 13 18 1011.8 1011.8 0.0
27/07:30am 20.8 17.9 16.0 74 2.9 W 26 33 14 18 1011.1 1011.1 0.0
27/07:00am 20.9 18.4 17.0 78 2.4 W 26 35 14 19 1010.4 1010.4 0.0
27/06:30am 21.1 18.1 17.7 81 2.1 WSW 30 37 16 20 1009.7 1009.7 0.0
27/06:00am 21.2 18.4 18.1 82 1.9 WSW 30 39 16 21 1009.2 1009.2 0.0
27/05:30am 21.3 18.2 18.4 83 1.8 WSW 32 41 17 22 1008.8 1008.8 0.0
27/05:00am 21.4 18.2 18.7 84 1.7 WSW 33 41 18 22 1008.0 1008.0 0.0
27/04:55am 21.4 18.2 18.5 83 1.8 W 33 41 18 22 1008.0 1008.0 0.0
27/04:30am 21.7 19.5 18.8 83 1.8 WSW 28 35 15 19 1007.3 1007.3 0.0
27/04:24am 21.8 19.0 19.1 84 1.7 WSW 32 44 17 24 1007.1 1007.1 0.0
27/04:00am 22.1 19.2 18.8 81 2.1 WSW 32 41 17 22 1006.3 1006.3 0.0
27/03:30am 23.3 19.6 18.4 74 3.1 W 35 50 19 27 1005.2 1005.2 0.0
27/03:26am 23.8 20.3 17.9 69 3.7 WNW 33 50 18 27 1005.2 1005.2 0.0
27/03:14am 26.3 23.2 17.6 58 5.5 NW 30 39 16 21 1004.3 1004.3 0.0
27/03:00am 29.7 24.6 13.7 37 9.6 N 33 63 18 34 1003.7 1003.7 0.0
27/02:30am 32.3 26.6 9.7 24 12.9 NNE 30 39 16 21 1002.0 1002.0 0.0
27/02:00am 32.5 26.5 10.1 25 12.8 NNE 32 41 17 22 1002.4 1002.4 0.0
27/01:30am 32.3 27.3 10.8 26 12.5 NNE 28 41 15 22 1002.6 1002.6 0.0
27/01:00am 31.8 27.0 11.5 28 11.8 NE 28 37 15 20 1003.1 1003.1 0.0
27/12:30am 32.1 27.4 12.0 29 11.9 NE 28 33 15 18 1003.4 1003.4 0.0
27/12:00am 31.5 27.4 12.7 31 11.2 NE 26 32 14 17 1003.9 1003.9 0.0
 
Date/Time
CDT
Temp
°C
App
Temp
°C
Dew
Point
°C
Rel
Hum
%
Delta-T
°C
Wind Press
QNH
hPa
Press
MSL
hPa
Rain since
9am
mm
Dir  Spd
km/h
Gust
km/h
Spd
kts
Gust
kts
26/11:30pm 31.5 27.1 12.9 32 11.1 NE 28 37 15 20 1004.5 1004.5 0.0
26/11:00pm 32.1 27.3 12.9 31 11.5 NE 30 39 16 21 1004.9 1004.9 0.0
26/10:30pm 32.2 28.1 12.8 30 11.6 NE 26 35 14 19 1005.3 1005.3 0.0
26/10:00pm 32.2 28.2 13.0 31 11.5 NE 26 32 14 17 1005.5 1005.5 0.0
26/09:30pm 32.0 28.4 13.2 31 11.3 NE 24 35 13 19 1005.7 1005.7 0.0
26/09:00pm 31.9 29.1 13.3 32 11.2 NE 20 28 11 15 1005.9 1005.9 0.0
26/08:30pm 32.0 28.9 13.4 32 11.2 NE 22 32 12 17 1006.0 1006.0 0.0
26/08:00pm 32.1 30.1 13.8 33 11.1 NE 17 22 9 12 1006.0 1006.0 0.0
26/07:30pm 32.2 29.7 13.5 32 11.3 NE 19 26 10 14 1005.9 1005.9 0.0
26/07:00pm 33.2 30.7 13.6 30 11.9 NE 19 26 10 14 1006.0 1006.0 0.0
26/06:30pm 33.2 32.1 14.3 32 11.6 NE 13 19 7 10 1006.2 1006.2 0.0
26/06:00pm 33.5 31.2 14.7 32 11.6 ENE 20 30 11 16 1006.1 1006.1 0.0
26/05:30pm 33.0 32.6 16.2 36 10.6 ENE 13 24 7 13 1006.3 1006.3 0.0
26/05:00pm 30.5 30.5 15.2 39 9.4 SW 9 9 5 5 1006.8 1006.8 0.0
26/04:30pm 30.1 29.9 14.7 39 9.4 SSW 9 11 5 6 1007.5 1007.5 0.0
26/04:00pm 31.0 31.1 15.5 39 9.6 S 9 13 5 7 1007.9 1007.9 0.0
26/03:30pm 29.6 28.6 14.6 40 9.1 SW 13 15 7 8 1008.5 1008.5 0.0
26/03:00pm 29.5 28.7 16.2 44 8.3 WSW 15 19 8 10 1008.9 1008.9 0.0
26/02:30pm 31.0 30.6 15.3 38 9.7 WSW 11 15 6 8 1009.3 1009.3 0.0
26/02:00pm 28.2 28.3 16.5 49 7.3 SW 11 13 6 7 1010.0 1010.0 0.0
26/01:30pm 27.1 26.5 16.6 52 6.5 WSW 15 17 8 9 1010.6 1010.6 0.0
26/01:00pm 28.1 27.9 16.7 50 7.1 WSW 13 15 7 8 1010.9 1010.9 0.0
26/12:30pm 27.3 26.9 16.3 51 6.8 WSW 13 15 7 8 1011.4 1011.4 0.0
26/12:00pm 28.2 28.9 16.1 47 7.5 NNE 7 11 4 6 1011.7 1011.7 0.0
26/11:30am 27.8 28.6 15.9 48 7.3 SE 6 11 3 6 1012.1 1012.1 0.0
26/11:00am 26.2 27.0 15.9 53 6.3 SE 6 9 3 5 1012.5 1012.5 0.0
26/10:30am 25.8 26.3 16.6 56 5.7 S 9 11 5 6 1012.6 1012.6 0.0
26/10:00am 23.7 24.4 18.8 74 3.1 SW 13 17 7 9 1012.5 1012.5 0.0
26/09:30am 23.5 24.4 18.4 73 3.2 SW 11 15 6 8 1012.3 1012.3 0.0
26/09:00am 23.0 24.6 19.1 78 2.5 SSW 9 11 5 6 1012.0 1012.0 0.0
26/08:30am 22.3 24.9 17.4 74 3.0 CALM 0 0 0 0 1011.9 1011.9 0.0
26/08:00am 21.7 23.5 17.5 77 2.6 ESE 4 7 2 4 1011.7 1011.7 0.0
26/07:30am 22.3 22.1 16.7 70 3.4 NNE 13 17 7 9 1011.5 1011.5 0.0
26/07:00am 22.1 22.1 17.2 74 3.0 NE 13 15 7 8 1011.4 1011.4 0.0
26/06:30am 21.5 21.2 17.4 77 2.5 NE 15 19 8 10 1011.1 1011.1 0.0
26/06:00am 20.8 20.6 17.7 82 1.9 NE 15 17 8 9 1011.3 1011.3 0.0
26/05:30am 20.8 22.5 18.1 84 1.7 NE 6 7 3 4 1011.8 1011.8 0.0
26/05:00am 20.9 22.0 17.1 79 2.3 NNE 7 9 4 5 1011.5 1011.5 0.0
26/04:30am 20.5 21.9 17.9 85 1.6 NNE 7 7 4 4 1011.9 1011.9 0.0
26/04:00am 20.4 23.2 18.0 86 1.5 CALM 0 0 0 0 1012.1 1012.1 0.0
26/03:30am 20.6 22.7 18.0 85 1.6 E 4 7 2 4 1012.2 1012.2 0.0
26/03:00am 20.5 23.3 17.9 85 1.6 CALM 0 0 0 0 1012.8 1012.8 0.0
26/02:30am 20.8 23.6 17.9 83 1.8 CALM 0 0 0 0 1013.0 1013.0 0.0
26/02:00am 20.6 23.5 18.2 86 1.5 CALM 0 0 0 0 1013.2 1013.2 0.0
26/01:30am 21.0 23.9 18.3 84 1.7 CALM 0 0 0 0 1013.3 1013.3 0.0
26/01:00am 21.0 23.9 18.3 84 1.7 CALM 0 0 0 0 1013.7 1013.7 0.0
26/12:30am 21.1 22.8 18.4 84 1.7 NE 7 7 4 4 1013.7 1013.7 0.0
26/12:00am 21.0 22.1 18.1 83 1.8 ENE 9 9 5 5 1013.8 1013.8 0.0
 
Date/Time
CDT
Temp
°C
App
Temp
°C
Dew
Point
°C
Rel
Hum
%
Delta-T
°C
Wind Press
QNH
hPa
Press
MSL
hPa
Rain since
9am
mm
Dir  Spd
km/h
Gust
km/h
Spd
kts
Gust
kts
25/11:30pm 21.6 23.4 18.7 83 1.8 N 7 9 4 5 1014.2 1014.2 0.0
25/11:00pm 21.8 23.7 18.9 83 1.8 NNW 7 9 4 5 1014.2 1014.2 0.0
25/10:30pm 21.9 23.8 18.6 81 2.1 NW 6 7 3 4 1014.1 1014.1 0.0
25/10:00pm 21.8 23.7 18.6 82 2.0 WNW 6 7 3 4 1014.1 1014.1 0.0
25/09:30pm 21.6 23.1 18.1 80 2.2 WNW 7 9 4 5 1013.8 1013.8 0.0
25/09:00pm 21.5 24.1 17.6 78 2.4 CALM 0 0 0 0 1013.1 1013.1 0.0
25/08:30pm 21.8 23.2 17.9 78 2.4 W 7 9 4 5 1013.3 1013.3 0.0
25/08:00pm 22.2 24.6 17.0 72 3.2 CALM 0 0 0 0 1013.1 1013.1 0.0
25/07:30pm 22.4 23.5 17.0 71 3.3 SSW 7 9 4 5 1013.1 1013.1 0.0
25/07:00pm 22.3 22.5 17.6 75 2.9 SSW 13 19 7 10 1013.1 1013.1 0.0
25/06:30pm 22.6 22.5 17.9 75 2.9 SW 15 19 8 10 1013.2 1013.2 0.0
25/06:00pm 22.2 22.8 18.5 79 2.3 S 13 17 7 9 1012.6 1012.6 0.0
25/05:30pm 22.6 22.8 18.5 77 2.6 SSW 15 20 8 11 1012.9 1012.9 0.0
25/05:00pm 22.8 21.9 18.3 76 2.8 SW 20 26 11 14 1013.0 1013.0 0.0
25/04:30pm 23.4 23.2 18.5 74 3.1 SW 17 20 9 11 1012.7 1012.7 0.0
25/04:00pm 23.5 22.7 17.9 71 3.5 SW 19 24 10 13 1012.8 1012.8 0.0
25/03:30pm 23.2 22.9 18.3 74 3.1 SW 17 22 9 12 1012.8 1012.8 0.0
25/03:00pm 23.7 23.6 17.9 70 3.6 SW 15 19 8 10 1012.8 1012.8 0.0

Latest Capital City Observations: Canberra | Sydney | Melbourne | Brisbane | Adelaide | Perth | Hobart | Darwin

Other Formats:

Comma delimited format used in spreadsheet applications
http://www.bom.gov.au/fwo/IDS60901/IDS60901.94672.axf

JavaScript Object Notation format (JSON) in row-major order
http://www.bom.gov.au/fwo/IDS60901/IDS60901.94672.json